DW9615 Home Hill AU current weather conditions

sailwx.info

Wind from 121 at 3 knots gusting 8

Air temperature 24.4° C
Dewpoint 21.0° C

Last reported at 2018-Apr-21 22:53 UTC.
Time now 2018-Apr-21 23:25 UTC

Location: S 19°40' E 147°25'.
View on Google Maps.

See reports from other nearby stations

  
Tides and Currents Weather Stations Pressure Air Temp Water Temp Dewpoint Dewpoint Depression Visibility Wind Speed Wind Dir Waves Ship Positions
date/time (UTC)wind fromknots sea level pressurealtimeterstation pressurevisibilityair tempwater tempwave heightnotes
2018-Apr-21 23:08 082 3 gusting 7 25.0
2018-Apr-21 22:53 121 3 gusting 8 24.4
2018-Apr-21 22:38 175 3 gusting 7 23.9
2018-Apr-21 22:23 155 1 gusting 4 23.3
2018-Apr-21 22:08 165 1 gusting 4 22.8
2018-Apr-21 21:37 145 0 gusting 2 21.1
2018-Apr-21 21:22 182 1 gusting 4 20.6
2018-Apr-21 21:07 153 20.0
2018-Apr-21 20:52 154 19.4
2018-Apr-21 20:37 224 19.4
2018-Apr-21 20:22 165 19.4
2018-Apr-21 20:07 160 19.4
2018-Apr-21 19:52 180 19.4
2018-Apr-21 19:37 208 19.4
2018-Apr-21 19:22 175 20.0
2018-Apr-21 19:07 165 20.0
2018-Apr-21 18:52 165 20.0
2018-Apr-21 18:37 158 20.0
2018-Apr-21 18:22 154 19.4
2018-Apr-21 18:07 175 19.4
2018-Apr-21 17:52 155 0 gusting 3 19.4
2018-Apr-21 17:37 203 20.0
2018-Apr-21 17:22 184 19.4
2018-Apr-21 17:07 165 18.9
2018-Apr-21 16:52 156 18.9
2018-Apr-21 16:37 165 19.4
2018-Apr-21 16:22 210 19.4
2018-Apr-21 16:07 207 19.4
2018-Apr-21 15:52 200 19.4
2018-Apr-21 15:37 200 19.4
2018-Apr-21 15:22 196 20.0
2018-Apr-21 15:07 196 20.0
2018-Apr-21 14:52 196 20.0
2018-Apr-21 14:37 196 20.6
2018-Apr-21 14:22 149 20.6
2018-Apr-21 14:07 147 21.1
2018-Apr-21 13:52 147 21.1
2018-Apr-21 13:38 116 21.1
2018-Apr-21 13:22 116 21.7
2018-Apr-21 13:07 116 21.7
2018-Apr-21 12:52 075 22.2
2018-Apr-21 12:37 075 22.2
2018-Apr-21 12:22 068 22.2
2018-Apr-21 12:07 068 22.2
2018-Apr-21 11:52 068 22.2
2018-Apr-21 11:37 068 22.8
2018-Apr-21 11:22 068 22.8
2018-Apr-21 11:07 068 23.3
2018-Apr-21 10:52 081 23.3
2018-Apr-21 10:37 087 23.3
2018-Apr-21 10:22 060 23.3
2018-Apr-21 10:07 075 23.9
2018-Apr-21 09:52 030 23.9
2018-Apr-21 09:37 038 23.9
2018-Apr-21 09:22 030 24.4
2018-Apr-21 09:07 052 0 gusting 3 24.4
2018-Apr-21 08:52 062 0 gusting 3 24.4
2018-Apr-21 08:37 078 0 gusting 3 24.4
2018-Apr-21 08:22 044 25.0
2018-Apr-21 08:07 057 0 gusting 4 25.0
2018-Apr-21 07:52 054 0 gusting 6 25.6
2018-Apr-21 07:36 048 3 gusting 7 26.1
2018-Apr-21 07:22 069 2 gusting 9 26.1
2018-Apr-21 07:06 100 2 gusting 8 26.7
2018-Apr-21 06:51 075 3 gusting 7 26.7
2018-Apr-21 06:36 038 2 gusting 10 26.7
2018-Apr-21 06:21 058 4 gusting 9 27.2
2018-Apr-21 06:06 049 4 gusting 8 27.2
2018-Apr-21 05:51 089 2 gusting 8 27.8
2018-Apr-21 05:36 070 3 gusting 7 28.3
2018-Apr-21 05:21 064 3 gusting 9 28.3
2018-Apr-21 05:06 112 3 gusting 8 28.3
2018-Apr-21 04:51 067 4 gusting 9 28.3
2018-Apr-21 04:36 071 5 gusting 10 28.3
2018-Apr-21 04:21 069 3 gusting 11 28.3
2018-Apr-21 04:06 039 4 gusting 10 28.9
2018-Apr-21 03:51 068 4 gusting 9 28.3
2018-Apr-21 03:36 042 2 gusting 6 28.3
2018-Apr-21 03:21 354 28.3
2018-Apr-21 03:06 108 4 gusting 9 28.3
2018-Apr-21 02:51 284 0 gusting 8 28.3
2018-Apr-21 02:36 060 3 gusting 7 28.3
2018-Apr-21 02:21 108 0 gusting 8 27.8
2018-Apr-21 02:06 087 1 gusting 9 28.3
2018-Apr-21 01:51 064 3 gusting 6 27.8
2018-Apr-21 01:36 075 1 gusting 7 27.8
2018-Apr-21 01:21 074 0 gusting 7 27.8
2018-Apr-21 01:06 098 3 gusting 7 27.8
2018-Apr-21 00:51 089 2 gusting 9 27.2
2018-Apr-21 00:36 130 4 gusting 8 27.2
2018-Apr-21 00:21 096 4 gusting 8 26.7
2018-Apr-21 00:06 123 3 gusting 7 26.7
2018-Apr-20 23:51 096 2 gusting 7 26.1
2018-Apr-20 23:36 112 3 gusting 8 25.6
2018-Apr-20 23:20 133 2 gusting 5 25.0
2018-Apr-20 23:05 175 25.0
2018-Apr-20 22:50 115 0 gusting 4 24.4
2018-Apr-20 22:35 156 23.9
2018-Apr-20 22:20 170 23.3
2018-Apr-20 22:05 219 22.8
2018-Apr-20 21:50 219 22.2
2018-Apr-20 21:35 241 21.1
2018-Apr-20 21:21 187 20.6
2018-Apr-20 21:05 160 20.0
2018-Apr-20 20:50 203 19.4
2018-Apr-20 20:35 252 19.4
2018-Apr-20 20:20 201 18.9
2018-Apr-20 20:05 201 18.9
2018-Apr-20 19:50 183 18.9
2018-Apr-20 19:35 183 19.4
2018-Apr-20 19:20 210 18.9
2018-Apr-20 19:05 247 19.4
2018-Apr-20 18:50 237 19.4
2018-Apr-20 18:35 231 19.4
2018-Apr-20 18:20 256 19.4
2018-Apr-20 18:05 265 19.4
2018-Apr-20 17:50 268 20.0
2018-Apr-20 17:35 268 20.0
2018-Apr-20 17:20 277 20.0
2018-Apr-20 17:05 277 20.6
2018-Apr-20 16:50 292 20.6
2018-Apr-20 16:35 293 20.0
2018-Apr-20 16:20 215 20.0
2018-Apr-20 16:05 216 20.0
2018-Apr-20 15:50 202 20.0
2018-Apr-20 15:35 156 20.6
2018-Apr-20 15:19 170 20.6
2018-Apr-20 15:04 170 20.6
2018-Apr-20 14:49 146 20.6
2018-Apr-20 14:34 159 20.6
2018-Apr-20 14:19 159 20.6
2018-Apr-20 14:04 159 21.1
2018-Apr-20 13:49 121 21.1
2018-Apr-20 13:34 121 21.7
2018-Apr-20 13:19 121 21.7
2018-Apr-20 13:04 121 21.7
2018-Apr-20 12:49 121 22.2
2018-Apr-20 12:34 092 22.8
2018-Apr-20 12:19 113 22.8
2018-Apr-20 12:04 093 22.8
2018-Apr-20 11:49 079 23.3
2018-Apr-20 11:34 093 0 gusting 2 23.3
2018-Apr-20 11:19 098 0 gusting 3 23.3
2018-Apr-20 11:04 098 23.3
2018-Apr-20 10:49 081 23.9
2018-Apr-20 10:34 091 1 gusting 5 23.9
2018-Apr-20 10:19 064 24.4
2018-Apr-20 10:04 062 1 gusting 4 24.4
2018-Apr-20 09:49 071 0 gusting 6 24.4
2018-Apr-20 09:34 047 1 gusting 4 24.4
2018-Apr-20 09:19 040 24.4
2018-Apr-20 09:04 035 0 gusting 3 24.4
2018-Apr-20 08:49 048 1 gusting 4 25.0
2018-Apr-20 08:34 047 25.0
2018-Apr-20 08:19 044 25.0
2018-Apr-20 08:04 071 2 gusting 6 25.6
2018-Apr-20 07:49 087 0 gusting 8 25.6
2018-Apr-20 07:34 070 4 gusting 10 26.1
2018-Apr-20 07:19 060 4 gusting 12 26.1
2018-Apr-20 07:04 044 3 gusting 10 26.7
2018-Apr-20 06:49 063 6 gusting 14 27.2
2018-Apr-20 06:34 050 4 gusting 11 27.2
2018-Apr-20 06:19 048 6 gusting 13 27.8
2018-Apr-20 06:04 068 4 gusting 11 27.8
2018-Apr-20 05:49 061 6 gusting 12 27.8
2018-Apr-20 05:34 079 5 gusting 10 28.3
2018-Apr-20 05:19 075 6 gusting 12 28.3
2018-Apr-20 05:04 052 5 gusting 9 28.9
2018-Apr-20 04:49 104 4 gusting 11 28.9
2018-Apr-20 04:34 081 5 gusting 9 28.9
2018-Apr-20 04:19 060 5 gusting 10 28.9
2018-Apr-20 04:04 060 4 gusting 9 28.9
2018-Apr-20 03:49 100 5 gusting 10 28.9
2018-Apr-20 03:34 065 6 gusting 12 28.9
2018-Apr-20 03:19 108 3 gusting 13 28.9
2018-Apr-20 03:04 071 6 gusting 13 28.9
2018-Apr-20 02:49 097 6 gusting 13 28.9
2018-Apr-20 02:34 083 6 gusting 13 28.3
2018-Apr-20 02:19 079 6 gusting 13 28.3
2018-Apr-20 02:03 079 6 gusting 12 28.3
2018-Apr-20 01:48 099 6 gusting 14 28.3
2018-Apr-20 01:33 092 6 gusting 13 28.3
2018-Apr-20 01:18 119 6 gusting 10 28.3
2018-Apr-20 01:03 141 5 gusting 9 28.3
2018-Apr-20 00:48 089 5 gusting 13 27.8
2018-Apr-20 00:33 104 6 gusting 11 27.8
2018-Apr-20 00:18 125 6 gusting 12 27.2
2018-Apr-20 00:03 052 6 gusting 11 27.2
2018-Apr-19 23:48 128 6 gusting 13 26.7
2018-Apr-19 23:33 123 5 gusting 9 26.1
2018-Apr-19 23:18 155 6 gusting 13 25.6
2018-Apr-19 23:03 118 4 gusting 7 25.0